Local Airport Observations (METAR)


KLVN - Airlake Airport, Lakeville, MN

Minneapolis, Airlake Airport, MN, United States (KLVN) 44-37-40N 093-13-41W Dec 16, 2008 - 07:34 AM EST / 2008.12.16 1234 UTC Wind: Calm:0 Visibility: 10 mile(s):0 Sky conditions: clear Temperature: -11 F (-24 C) Dew Point: -16 F (-27 C) Relative Humidity: 76% Pressure (altimeter): 30.48 in. Hg (1032 hPa) ob: KLVN 161234Z AUTO 00000KT 10SM CLR M24/M27 A3048 RMK AO2 cycle: 12

KMSP - Minneapolis/St. Paul International Airport, Minneapolis, MN

MINNEAPOLIS-ST PAUL INTERNATIONAL , MN, United States (KMSP) 44-52N 93-13W 265M Dec 16, 2008 - 06:53 AM EST / 2008.12.16 1153 UTC Wind: from the S (170 degrees) at 3 MPH (3 KT):0 Visibility: 10 mile(s):0 Sky conditions: overcast Weather: 3 inches of snow on ground Temperature: -9.9 F (-23.3 C) Dew Point: -17.0 F (-27.2 C) Relative Humidity: 70% Pressure (altimeter): 30.51 in. Hg (1033 hPa) Pressure tendency: 0.07 inches (2.3 hPa) lower than three hours ago ob: KMSP 161153Z 17003KT 10SM BKN170 OVC250 M23/M27 A3051 RMK AO2 SLP362 4/003 T12331272 11233 21239 58023 cycle: 12

KSTP - St. Paul Downtown Airport, St. Paul, MN

DOWNTOWN HOLMAN FIELD, MN, United States (KSTP) 44-56N 093-03W 219M Dec 16, 2008 - 06:53 AM EST / 2008.12.16 1153 UTC Wind: Calm:0 Visibility: 10 mile(s):0 Sky conditions: clear Temperature: -9.0 F (-22.8 C) Dew Point: -16.1 F (-26.7 C) Relative Humidity: 70% Pressure (altimeter): 30.55 in. Hg (1034 hPa) Pressure tendency: 0.07 inches (2.4 hPa) lower than three hours ago ob: KSTP 161153Z 00000KT 10SM CLR M23/M27 A3055 RMK AO2 SLP365 T12281267 11222 21233 58024 cycle: 12

KFCM - Flying Cloud Airport, Eden Prairie, MN

Minneapolis, Flying Cloud Airport, MN, United States (KFCM) 44-49-56N 093-28-13W 280M Dec 16, 2008 - 06:53 AM EST / 2008.12.16 1153 UTC Wind: Calm:0 Visibility: 10 mile(s):0 Sky conditions: clear Temperature: -11.0 F (-23.9 C) Dew Point: -17.0 F (-27.2 C) Relative Humidity: 74% Pressure (altimeter): 30.49 in. Hg (1032 hPa) Pressure tendency: 0.08 inches (2.6 hPa) lower than three hours ago ob: KFCM 161153Z AUTO 00000KT 10SM CLR M24/M27 A3049 RMK AO2 SLP357 T12391272 11239 21256 58026 cycle: 12

KSGS - South St. Paul Municipal Aiport, South St. Paul, MN

South St. Paul, South St. Paul Municipal-Richard E. Fleming Field Airport, MN, United States (KSGS) 44-51-26N 093-01-58W Dec 16, 2008 - 07:35 AM EST / 2008.12.16 1235 UTC Wind: Calm:0 Visibility: 10 mile(s):0 Sky conditions: clear Temperature: -7 F (-22 C) Dew Point: -14 F (-26 C) Relative Humidity: 69% Pressure (altimeter): 30.51 in. Hg (1033 hPa) ob: KSGS 161235Z AUTO 00000KT 10SM CLR M22/M26 A3051 RMK AO2 cycle: 12

KRGK - Red Wing Municipal Airport, Red Wing, MN

Red Wing, Red Wing Municipal Airport, MN, United States (KRGK) 44-35-25N 092-29-10W Dec 16, 2008 - 07:35 AM EST / 2008.12.16 1235 UTC Wind: Calm:0 Visibility: 10 mile(s):0 Sky conditions: mostly cloudy Temperature: -7 F (-22 C) Dew Point: -13 F (-25 C) Relative Humidity: 76% Pressure (altimeter): 30.51 in. Hg (1033 hPa) ob: KRGK 161235Z AUTO 00000KT 10SM BKN070 M22/M25 A3051 RMK AO2 cycle: 12
** NOTE ** Observations above are provided from internet sources, and may not show the most current observation. Typically, METAR observations are distributed on an hourly basis.
USA Weather Finder

Copyright © 2006-2008, lakevilleweather.com
This website is NOT an official source of weather to use for aviation or other navigational planning decisions.

This website has been customized for viewing in the Firefox browser

Get Firefox!